sensor_id;sensor_type;location;lat;lon;timestamp;P1;durP1;ratioP1;P2;durP2;ratioP2
66189;SDS011;52992;52.084;5.412;2023-06-22T00:00:20;1999.90;;;999.90;;
66189;SDS011;52992;52.084;5.412;2023-06-22T00:02:47;1999.90;;;999.90;;
66189;SDS011;52992;52.084;5.412;2023-06-22T00:05:14;1999.90;;;999.90;;
66189;SDS011;52992;52.084;5.412;2023-06-22T00:07:41;1999.90;;;999.90;;
66189;SDS011;52992;52.084;5.412;2023-06-22T00:10:08;1999.90;;;999.90;;
66189;SDS011;52992;52.084;5.412;2023-06-22T00:12:35;1999.90;;;999.90;;
66189;SDS011;52992;52.084;5.412;2023-06-22T00:15:02;1999.90;;;999.90;;
66189;SDS011;52992;52.084;5.412;2023-06-22T00:17:29;1999.90;;;999.90;;
66189;SDS011;52992;52.084;5.412;2023-06-22T00:19:56;1999.90;;;999.90;;
66189;SDS011;52992;52.084;5.412;2023-06-22T00:22:24;1999.90;;;999.90;;
66189;SDS011;52992;52.084;5.412;2023-06-22T00:24:55;1999.90;;;999.90;;
66189;SDS011;52992;52.084;5.412;2023-06-22T00:27:23;1999.90;;;999.90;;
66189;SDS011;52992;52.084;5.412;2023-06-22T00:29:50;1999.90;;;999.90;;
66189;SDS011;52992;52.084;5.412;2023-06-22T00:32:17;1999.90;;;999.90;;
66189;SDS011;52992;52.084;5.412;2023-06-22T00:34:46;1999.90;;;999.90;;
66189;SDS011;52992;52.084;5.412;2023-06-22T00:37:13;1999.90;;;999.90;;
66189;SDS011;52992;52.084;5.412;2023-06-22T00:39:40;1999.90;;;999.90;;
66189;SDS011;52992;52.084;5.412;2023-06-22T00:42:07;1999.90;;;999.90;;
66189;SDS011;52992;52.084;5.412;2023-06-22T00:44:35;1999.90;;;999.90;;
66189;SDS011;52992;52.084;5.412;2023-06-22T00:47:02;1999.90;;;999.90;;
66189;SDS011;52992;52.084;5.412;2023-06-22T00:49:29;1999.90;;;999.90;;
66189;SDS011;52992;52.084;5.412;2023-06-22T00:51:57;1999.90;;;999.90;;
66189;SDS011;52992;52.084;5.412;2023-06-22T00:54:25;1999.90;;;999.90;;
66189;SDS011;52992;52.084;5.412;2023-06-22T00:56:54;1999.90;;;999.90;;
66189;SDS011;52992;52.084;5.412;2023-06-22T00:59:23;1999.90;;;999.90;;
66189;SDS011;52992;52.084;5.412;2023-06-22T01:01:52;1999.90;;;999.90;;
66189;SDS011;52992;52.084;5.412;2023-06-22T01:04:21;1999.90;;;999.90;;
66189;SDS011;52992;52.084;5.412;2023-06-22T01:07:03;1999.90;;;999.90;;
66189;SDS011;52992;52.084;5.412;2023-06-22T01:09:44;1999.90;;;999.90;;
66189;SDS011;52992;52.084;5.412;2023-06-22T01:12:30;1999.90;;;999.90;;
66189;SDS011;52992;52.084;5.412;2023-06-22T01:15:06;1999.90;;;999.90;;
66189;SDS011;52992;52.084;5.412;2023-06-22T01:17:37;1999.90;;;999.90;;
66189;SDS011;52992;52.084;5.412;2023-06-22T01:20:09;1999.90;;;999.90;;
66189;SDS011;52992;52.084;5.412;2023-06-22T01:22:46;1999.90;;;999.90;;
66189;SDS011;52992;52.084;5.412;2023-06-22T01:25:36;1999.90;;;999.90;;
66189;SDS011;52992;52.084;5.412;2023-06-22T01:28:23;1999.90;;;999.90;;
66189;SDS011;52992;52.084;5.412;2023-06-22T01:31:10;1999.90;;;999.90;;
66189;SDS011;52992;52.084;5.412;2023-06-22T01:33:39;1999.90;;;999.90;;
66189;SDS011;52992;52.084;5.412;2023-06-22T01:36:09;1999.90;;;999.90;;
66189;SDS011;52992;52.084;5.412;2023-06-22T01:38:37;1999.90;;;999.90;;
66189;SDS011;52992;52.084;5.412;2023-06-22T01:41:05;1999.90;;;999.90;;
66189;SDS011;52992;52.084;5.412;2023-06-22T01:43:32;1999.90;;;999.90;;
66189;SDS011;52992;52.084;5.412;2023-06-22T01:46:01;1999.90;;;999.90;;
66189;SDS011;52992;52.084;5.412;2023-06-22T01:48:29;1999.90;;;999.90;;
66189;SDS011;52992;52.084;5.412;2023-06-22T01:50:57;1999.90;;;999.90;;
66189;SDS011;52992;52.084;5.412;2023-06-22T01:53:24;1999.90;;;999.90;;
66189;SDS011;52992;52.084;5.412;2023-06-22T01:55:51;1999.90;;;999.90;;
66189;SDS011;52992;52.084;5.412;2023-06-22T01:58:20;1999.90;;;999.90;;
66189;SDS011;52992;52.084;5.412;2023-06-22T02:00:51;1999.90;;;999.90;;
66189;SDS011;52992;52.084;5.412;2023-06-22T02:03:26;1999.90;;;999.90;;
66189;SDS011;52992;52.084;5.412;2023-06-22T02:06:08;1999.90;;;999.90;;
66189;SDS011;52992;52.084;5.412;2023-06-22T02:08:48;1999.90;;;999.90;;
66189;SDS011;52992;52.084;5.412;2023-06-22T02:11:20;1999.90;;;999.90;;
66189;SDS011;52992;52.084;5.412;2023-06-22T02:13:49;1999.90;;;999.90;;
66189;SDS011;52992;52.084;5.412;2023-06-22T02:16:16;1999.90;;;999.90;;
66189;SDS011;52992;52.084;5.412;2023-06-22T02:18:47;1999.90;;;999.90;;
66189;SDS011;52992;52.084;5.412;2023-06-22T02:21:19;1999.90;;;999.90;;
66189;SDS011;52992;52.084;5.412;2023-06-22T02:23:46;1999.90;;;999.90;;
66189;SDS011;52992;52.084;5.412;2023-06-22T02:26:15;1999.90;;;999.90;;
66189;SDS011;52992;52.084;5.412;2023-06-22T02:28:43;1999.90;;;999.90;;
66189;SDS011;52992;52.084;5.412;2023-06-22T02:31:10;1999.90;;;999.90;;
66189;SDS011;52992;52.084;5.412;2023-06-22T02:33:37;1999.90;;;999.90;;
66189;SDS011;52992;52.084;5.412;2023-06-22T02:36:04;1999.90;;;999.90;;
66189;SDS011;52992;52.084;5.412;2023-06-22T02:38:35;1999.90;;;999.90;;
66189;SDS011;52992;52.084;5.412;2023-06-22T02:41:02;1999.90;;;999.90;;
66189;SDS011;52992;52.084;5.412;2023-06-22T02:43:29;1999.90;;;999.90;;
66189;SDS011;52992;52.084;5.412;2023-06-22T02:45:56;1999.90;;;999.90;;
66189;SDS011;52992;52.084;5.412;2023-06-22T02:48:23;1999.90;;;999.90;;
66189;SDS011;52992;52.084;5.412;2023-06-22T02:50:52;1999.90;;;999.90;;
66189;SDS011;52992;52.084;5.412;2023-06-22T02:53:19;1999.90;;;999.90;;
66189;SDS011;52992;52.084;5.412;2023-06-22T02:55:47;1999.90;;;999.90;;
66189;SDS011;52992;52.084;5.412;2023-06-22T02:58:14;1999.90;;;999.90;;
66189;SDS011;52992;52.084;5.412;2023-06-22T03:00:41;1999.90;;;999.90;;
66189;SDS011;52992;52.084;5.412;2023-06-22T03:03:08;1999.90;;;999.90;;
66189;SDS011;52992;52.084;5.412;2023-06-22T03:05:35;1999.90;;;999.90;;
66189;SDS011;52992;52.084;5.412;2023-06-22T03:08:02;1999.90;;;999.90;;
66189;SDS011;52992;52.084;5.412;2023-06-22T03:10:32;1999.90;;;999.90;;
66189;SDS011;52992;52.084;5.412;2023-06-22T03:12:59;1999.90;;;999.90;;
66189;SDS011;52992;52.084;5.412;2023-06-22T03:15:26;1999.90;;;999.90;;
66189;SDS011;52992;52.084;5.412;2023-06-22T03:17:55;1999.90;;;999.90;;
66189;SDS011;52992;52.084;5.412;2023-06-22T03:20:23;1999.90;;;999.90;;
66189;SDS011;52992;52.084;5.412;2023-06-22T03:22:51;1999.90;;;999.90;;
66189;SDS011;52992;52.084;5.412;2023-06-22T03:25:19;1999.90;;;999.90;;
66189;SDS011;52992;52.084;5.412;2023-06-22T03:27:48;1999.90;;;999.90;;
66189;SDS011;52992;52.084;5.412;2023-06-22T03:30:15;1999.90;;;999.90;;
66189;SDS011;52992;52.084;5.412;2023-06-22T03:32:41;1999.90;;;999.90;;
66189;SDS011;52992;52.084;5.412;2023-06-22T03:35:09;1999.90;;;999.90;;
66189;SDS011;52992;52.084;5.412;2023-06-22T03:37:39;1999.90;;;999.90;;
66189;SDS011;52992;52.084;5.412;2023-06-22T03:40:07;1999.90;;;999.90;;
66189;SDS011;52992;52.084;5.412;2023-06-22T03:42:34;1999.90;;;999.90;;
66189;SDS011;52992;52.084;5.412;2023-06-22T03:45:04;1999.90;;;999.90;;
66189;SDS011;52992;52.084;5.412;2023-06-22T03:47:32;1999.90;;;999.90;;
66189;SDS011;52992;52.084;5.412;2023-06-22T03:49:59;1999.90;;;999.90;;
66189;SDS011;52992;52.084;5.412;2023-06-22T03:52:27;1999.90;;;999.90;;
66189;SDS011;52992;52.084;5.412;2023-06-22T03:54:54;1999.90;;;999.90;;
66189;SDS011;52992;52.084;5.412;2023-06-22T03:57:20;1999.90;;;999.90;;
66189;SDS011;52992;52.084;5.412;2023-06-22T03:59:47;1999.90;;;999.90;;
66189;SDS011;52992;52.084;5.412;2023-06-22T04:02:14;1999.90;;;999.90;;
66189;SDS011;52992;52.084;5.412;2023-06-22T04:04:41;1999.90;;;999.90;;
66189;SDS011;52992;52.084;5.412;2023-06-22T04:07:08;1999.90;;;999.90;;
66189;SDS011;52992;52.084;5.412;2023-06-22T04:09:35;1999.90;;;999.90;;
66189;SDS011;52992;52.084;5.412;2023-06-22T04:12:02;1999.90;;;999.90;;
66189;SDS011;52992;52.084;5.412;2023-06-22T04:14:29;1999.90;;;999.90;;
66189;SDS011;52992;52.084;5.412;2023-06-22T04:16:57;1999.90;;;999.90;;
66189;SDS011;52992;52.084;5.412;2023-06-22T04:19:24;1999.90;;;999.90;;
66189;SDS011;52992;52.084;5.412;2023-06-22T04:21:52;1999.90;;;999.90;;
66189;SDS011;52992;52.084;5.412;2023-06-22T04:24:19;1999.90;;;999.90;;
66189;SDS011;52992;52.084;5.412;2023-06-22T04:26:46;1999.90;;;999.90;;
66189;SDS011;52992;52.084;5.412;2023-06-22T04:29:13;1999.90;;;999.90;;
66189;SDS011;52992;52.084;5.412;2023-06-22T04:31:40;1999.90;;;999.90;;
66189;SDS011;52992;52.084;5.412;2023-06-22T04:34:07;1999.90;;;999.90;;
66189;SDS011;52992;52.084;5.412;2023-06-22T04:39:07;1999.90;;;999.90;;
66189;SDS011;52992;52.084;5.412;2023-06-22T04:41:39;1999.90;;;999.90;;
66189;SDS011;52992;52.084;5.412;2023-06-22T04:44:16;1999.90;;;999.90;;
66189;SDS011;52992;52.084;5.412;2023-06-22T04:46:52;1999.90;;;999.90;;
66189;SDS011;52992;52.084;5.412;2023-06-22T04:49:26;1999.90;;;999.90;;
66189;SDS011;52992;52.084;5.412;2023-06-22T04:52:08;1999.90;;;999.90;;
66189;SDS011;52992;52.084;5.412;2023-06-22T04:54:40;1999.90;;;999.90;;
66189;SDS011;52992;52.084;5.412;2023-06-22T04:57:14;1999.90;;;999.90;;
66189;SDS011;52992;52.084;5.412;2023-06-22T04:59:41;1999.90;;;999.90;;
66189;SDS011;52992;52.084;5.412;2023-06-22T05:02:08;1999.90;;;999.90;;
66189;SDS011;52992;52.084;5.412;2023-06-22T05:04:35;1999.90;;;999.90;;
66189;SDS011;52992;52.084;5.412;2023-06-22T05:07:05;1999.90;;;999.90;;
66189;SDS011;52992;52.084;5.412;2023-06-22T05:09:33;1999.90;;;999.90;;
66189;SDS011;52992;52.084;5.412;2023-06-22T05:12:00;1999.90;;;999.90;;
66189;SDS011;52992;52.084;5.412;2023-06-22T05:14:29;1999.90;;;999.90;;
66189;SDS011;52992;52.084;5.412;2023-06-22T05:16:56;1999.90;;;999.90;;
66189;SDS011;52992;52.084;5.412;2023-06-22T05:19:25;1999.90;;;999.90;;
66189;SDS011;52992;52.084;5.412;2023-06-22T05:22:00;1999.90;;;999.90;;
66189;SDS011;52992;52.084;5.412;2023-06-22T05:24:27;1999.90;;;999.90;;
66189;SDS011;52992;52.084;5.412;2023-06-22T05:26:54;1999.90;;;999.90;;
66189;SDS011;52992;52.084;5.412;2023-06-22T05:29:21;1999.90;;;999.90;;
66189;SDS011;52992;52.084;5.412;2023-06-22T05:31:48;1999.90;;;999.90;;
66189;SDS011;52992;52.084;5.412;2023-06-22T05:34:16;1999.90;;;999.90;;
66189;SDS011;52992;52.084;5.412;2023-06-22T05:36:43;1999.90;;;999.90;;
66189;SDS011;52992;52.084;5.412;2023-06-22T05:39:14;1999.90;;;999.90;;
66189;SDS011;52992;52.084;5.412;2023-06-22T05:41:41;1999.90;;;999.90;;
66189;SDS011;52992;52.084;5.412;2023-06-22T05:44:09;1999.90;;;999.90;;
66189;SDS011;52992;52.084;5.412;2023-06-22T05:46:37;1999.90;;;999.90;;
66189;SDS011;52992;52.084;5.412;2023-06-22T05:49:11;1999.90;;;999.90;;
66189;SDS011;52992;52.084;5.412;2023-06-22T05:51:39;1999.90;;;999.90;;
66189;SDS011;52992;52.084;5.412;2023-06-22T05:54:06;1999.90;;;999.90;;
66189;SDS011;52992;52.084;5.412;2023-06-22T05:56:35;1999.90;;;999.90;;
66189;SDS011;52992;52.084;5.412;2023-06-22T05:59:01;1999.90;;;999.90;;
66189;SDS011;52992;52.084;5.412;2023-06-22T06:01:28;1999.90;;;999.90;;
66189;SDS011;52992;52.084;5.412;2023-06-22T06:04:02;1999.90;;;999.90;;
66189;SDS011;52992;52.084;5.412;2023-06-22T06:06:30;1999.90;;;999.90;;
66189;SDS011;52992;52.084;5.412;2023-06-22T06:08:57;1999.90;;;999.90;;
66189;SDS011;52992;52.084;5.412;2023-06-22T06:11:26;1999.90;;;999.90;;
66189;SDS011;52992;52.084;5.412;2023-06-22T06:13:53;1999.90;;;999.90;;
66189;SDS011;52992;52.084;5.412;2023-06-22T06:16:21;1999.90;;;999.90;;
66189;SDS011;52992;52.084;5.412;2023-06-22T06:18:49;1999.90;;;999.90;;
66189;SDS011;52992;52.084;5.412;2023-06-22T06:21:16;1999.90;;;999.90;;
66189;SDS011;52992;52.084;5.412;2023-06-22T06:23:43;1999.90;;;999.90;;
66189;SDS011;52992;52.084;5.412;2023-06-22T06:26:10;1999.90;;;999.90;;
66189;SDS011;52992;52.084;5.412;2023-06-22T06:28:37;1999.90;;;999.90;;
66189;SDS011;52992;52.084;5.412;2023-06-22T06:31:04;1999.90;;;999.90;;
66189;SDS011;52992;52.084;5.412;2023-06-22T06:33:35;1999.90;;;999.90;;
66189;SDS011;52992;52.084;5.412;2023-06-22T06:36:02;1999.90;;;999.90;;
66189;SDS011;52992;52.084;5.412;2023-06-22T06:38:30;1999.90;;;999.90;;
66189;SDS011;52992;52.084;5.412;2023-06-22T06:40:57;1999.90;;;999.90;;
66189;SDS011;52992;52.084;5.412;2023-06-22T06:43:25;1999.90;;;999.90;;
66189;SDS011;52992;52.084;5.412;2023-06-22T06:45:52;1999.90;;;999.90;;
66189;SDS011;52992;52.084;5.412;2023-06-22T06:48:19;1999.90;;;999.90;;
66189;SDS011;52992;52.084;5.412;2023-06-22T06:50:46;1999.90;;;999.90;;
66189;SDS011;52992;52.084;5.412;2023-06-22T06:53:13;1999.90;;;999.90;;
66189;SDS011;52992;52.084;5.412;2023-06-22T06:55:40;1999.90;;;999.90;;
66189;SDS011;52992;52.084;5.412;2023-06-22T06:58:07;1999.90;;;999.90;;
66189;SDS011;52992;52.084;5.412;2023-06-22T07:00:36;1999.90;;;999.90;;
66189;SDS011;52992;52.084;5.412;2023-06-22T07:03:03;1999.90;;;999.90;;
66189;SDS011;52992;52.084;5.412;2023-06-22T07:05:30;1999.90;;;999.90;;
66189;SDS011;52992;52.084;5.412;2023-06-22T07:07:57;1999.90;;;999.90;;
66189;SDS011;52992;52.084;5.412;2023-06-22T07:10:24;1999.90;;;999.90;;
66189;SDS011;52992;52.084;5.412;2023-06-22T07:12:51;1999.90;;;999.90;;
66189;SDS011;52992;52.084;5.412;2023-06-22T07:15:18;1999.90;;;999.90;;
66189;SDS011;52992;52.084;5.412;2023-06-22T07:17:45;1999.90;;;999.90;;
66189;SDS011;52992;52.084;5.412;2023-06-22T07:20:12;1999.90;;;999.90;;
66189;SDS011;52992;52.084;5.412;2023-06-22T07:22:39;1999.90;;;999.90;;
66189;SDS011;52992;52.084;5.412;2023-06-22T07:25:09;1999.90;;;999.90;;
66189;SDS011;52992;52.084;5.412;2023-06-22T07:27:37;1999.90;;;999.90;;
66189;SDS011;52992;52.084;5.412;2023-06-22T07:30:11;1999.90;;;999.90;;
66189;SDS011;52992;52.084;5.412;2023-06-22T07:32:39;1999.90;;;999.90;;
66189;SDS011;52992;52.084;5.412;2023-06-22T07:35:06;1999.90;;;999.90;;
66189;SDS011;52992;52.084;5.412;2023-06-22T07:37:33;1999.90;;;999.90;;
66189;SDS011;52992;52.084;5.412;2023-06-22T07:40:01;1999.90;;;999.90;;
66189;SDS011;52992;52.084;5.412;2023-06-22T07:42:32;1999.90;;;999.90;;
66189;SDS011;52992;52.084;5.412;2023-06-22T07:44:59;1999.90;;;999.90;;
66189;SDS011;52992;52.084;5.412;2023-06-22T07:47:28;1999.90;;;999.90;;
66189;SDS011;52992;52.084;5.412;2023-06-22T07:49:55;1999.90;;;999.90;;
66189;SDS011;52992;52.084;5.412;2023-06-22T07:52:27;1999.90;;;999.90;;
66189;SDS011;52992;52.084;5.412;2023-06-22T07:54:55;1999.90;;;999.90;;
66189;SDS011;52992;52.084;5.412;2023-06-22T07:57:22;1999.90;;;999.90;;
66189;SDS011;52992;52.084;5.412;2023-06-22T07:59:49;1999.90;;;999.90;;
66189;SDS011;52992;52.084;5.412;2023-06-22T08:02:16;1999.90;;;999.90;;
66189;SDS011;52992;52.084;5.412;2023-06-22T08:04:43;1999.90;;;999.90;;
66189;SDS011;52992;52.084;5.412;2023-06-22T08:07:10;1999.90;;;999.90;;
66189;SDS011;52992;52.084;5.412;2023-06-22T08:09:37;1999.90;;;999.90;;
66189;SDS011;52992;52.084;5.412;2023-06-22T08:12:05;1999.90;;;999.90;;
66189;SDS011;52992;52.084;5.412;2023-06-22T08:14:32;1999.90;;;999.90;;
66189;SDS011;52992;52.084;5.412;2023-06-22T08:17:02;1999.90;;;999.90;;
66189;SDS011;52992;52.084;5.412;2023-06-22T08:19:29;1999.90;;;999.90;;
66189;SDS011;52992;52.084;5.412;2023-06-22T08:21:56;1999.90;;;999.90;;
66189;SDS011;52992;52.084;5.412;2023-06-22T08:24:24;1999.90;;;999.90;;
66189;SDS011;52992;52.084;5.412;2023-06-22T08:26:51;1999.90;;;999.90;;
66189;SDS011;52992;52.084;5.412;2023-06-22T08:29:18;1999.90;;;999.90;;
66189;SDS011;52992;52.084;5.412;2023-06-22T08:31:46;1999.90;;;999.90;;
66189;SDS011;52992;52.084;5.412;2023-06-22T08:34:13;1999.90;;;999.90;;
66189;SDS011;52992;52.084;5.412;2023-06-22T08:36:43;1999.90;;;999.90;;
66189;SDS011;52992;52.084;5.412;2023-06-22T08:39:11;1999.90;;;999.90;;
66189;SDS011;52992;52.084;5.412;2023-06-22T08:41:38;1999.90;;;999.90;;
66189;SDS011;52992;52.084;5.412;2023-06-22T08:44:05;1999.90;;;999.90;;
66189;SDS011;52992;52.084;5.412;2023-06-22T08:46:32;1999.90;;;999.90;;
66189;SDS011;52992;52.084;5.412;2023-06-22T08:48:59;1999.90;;;999.90;;
66189;SDS011;52992;52.084;5.412;2023-06-22T08:51:27;1999.90;;;999.90;;
66189;SDS011;52992;52.084;5.412;2023-06-22T08:53:55;1999.90;;;999.90;;
66189;SDS011;52992;52.084;5.412;2023-06-22T08:56:22;1999.90;;;999.90;;
66189;SDS011;52992;52.084;5.412;2023-06-22T08:58:48;1999.90;;;999.90;;
66189;SDS011;52992;52.084;5.412;2023-06-22T09:01:15;1999.90;;;999.90;;
66189;SDS011;52992;52.084;5.412;2023-06-22T09:03:42;1999.90;;;999.90;;
66189;SDS011;52992;52.084;5.412;2023-06-22T09:06:09;1999.90;;;999.90;;
66189;SDS011;52992;52.084;5.412;2023-06-22T09:08:36;1999.90;;;999.90;;
66189;SDS011;52992;52.084;5.412;2023-06-22T09:11:03;1999.90;;;999.90;;
66189;SDS011;52992;52.084;5.412;2023-06-22T09:13:31;1999.90;;;999.90;;
66189;SDS011;52992;52.084;5.412;2023-06-22T09:15:59;1999.90;;;999.90;;
66189;SDS011;52992;52.084;5.412;2023-06-22T09:18:26;1999.90;;;999.90;;
66189;SDS011;52992;52.084;5.412;2023-06-22T09:20:53;1999.90;;;999.90;;
66189;SDS011;52992;52.084;5.412;2023-06-22T09:23:20;1999.90;;;999.90;;
66189;SDS011;52992;52.084;5.412;2023-06-22T09:25:47;1352.40;;;684.77;;
66189;SDS011;52992;52.084;5.412;2023-06-22T09:28:14;1354.00;;;686.33;;
66189;SDS011;52992;52.084;5.412;2023-06-22T09:30:43;1999.90;;;999.90;;
66189;SDS011;52992;52.084;5.412;2023-06-22T09:33:11;1999.90;;;999.90;;
66189;SDS011;52992;52.084;5.412;2023-06-22T09:35:38;1999.90;;;999.90;;
66189;SDS011;52992;52.084;5.412;2023-06-22T09:38:05;54.43;;;51.83;;
66189;SDS011;52992;52.084;5.412;2023-06-22T09:40:32;54.27;;;51.53;;
66189;SDS011;52992;52.084;5.412;2023-06-22T09:43:01;64.63;;;61.23;;
66189;SDS011;52992;52.084;5.412;2023-06-22T09:45:28;54.73;;;52.03;;
66189;SDS011;52992;52.084;5.412;2023-06-22T09:47:56;49.43;;;46.73;;
66189;SDS011;52992;52.084;5.412;2023-06-22T09:50:23;68.00;;;64.53;;
66189;SDS011;52992;52.084;5.412;2023-06-22T09:52:50;56.43;;;53.63;;
66189;SDS011;52992;52.084;5.412;2023-06-22T09:55:21;61.07;;;58.27;;
66189;SDS011;52992;52.084;5.412;2023-06-22T09:57:49;58.43;;;55.53;;
66189;SDS011;52992;52.084;5.412;2023-06-22T10:00:16;54.43;;;51.73;;
66189;SDS011;52992;52.084;5.412;2023-06-22T10:02:45;47.43;;;45.03;;
66189;SDS011;52992;52.084;5.412;2023-06-22T10:05:13;55.47;;;52.70;;
66189;SDS011;52992;52.084;5.412;2023-06-22T10:07:40;53.80;;;51.13;;
66189;SDS011;52992;52.084;5.412;2023-06-22T10:10:11;52.77;;;49.83;;
66189;SDS011;52992;52.084;5.412;2023-06-22T10:12:43;53.27;;;50.63;;
66189;SDS011;52992;52.084;5.412;2023-06-22T10:15:14;58.70;;;55.90;;
66189;SDS011;52992;52.084;5.412;2023-06-22T10:17:42;64.23;;;61.10;;
66189;SDS011;52992;52.084;5.412;2023-06-22T10:20:09;63.87;;;60.87;;
66189;SDS011;52992;52.084;5.412;2023-06-22T10:22:40;65.47;;;62.17;;
66189;SDS011;52992;52.084;5.412;2023-06-22T10:25:08;53.80;;;50.93;;
66189;SDS011;52992;52.084;5.412;2023-06-22T10:27:36;51.07;;;48.50;;
66189;SDS011;52992;52.084;5.412;2023-06-22T10:30:09;58.20;;;55.30;;
66189;SDS011;52992;52.084;5.412;2023-06-22T10:32:39;52.80;;;50.30;;
66189;SDS011;52992;52.084;5.412;2023-06-22T10:35:07;54.73;;;51.83;;
66189;SDS011;52992;52.084;5.412;2023-06-22T10:37:35;56.57;;;53.77;;
66189;SDS011;52992;52.084;5.412;2023-06-22T10:40:02;55.03;;;52.33;;
66189;SDS011;52992;52.084;5.412;2023-06-22T10:42:30;44.90;;;42.80;;
66189;SDS011;52992;52.084;5.412;2023-06-22T10:44:57;52.33;;;49.97;;
66189;SDS011;52992;52.084;5.412;2023-06-22T10:47:24;49.33;;;46.83;;
66189;SDS011;52992;52.084;5.412;2023-06-22T10:49:51;1999.90;;;999.90;;
66189;SDS011;52992;52.084;5.412;2023-06-22T10:52:17;60.70;;;57.80;;
66189;SDS011;52992;52.084;5.412;2023-06-22T10:54:44;1355.30;;;687.60;;
66189;SDS011;52992;52.084;5.412;2023-06-22T10:57:11;57.00;;;54.13;;
66189;SDS011;52992;52.084;5.412;2023-06-22T10:59:38;1355.47;;;687.77;;
66189;SDS011;52992;52.084;5.412;2023-06-22T11:02:05;56.87;;;54.07;;
66189;SDS011;52992;52.084;5.412;2023-06-22T11:04:32;1353.00;;;685.40;;
66189;SDS011;52992;52.084;5.412;2023-06-22T11:06:59;53.50;;;50.90;;
66189;SDS011;52992;52.084;5.412;2023-06-22T11:09:26;51.23;;;48.70;;
66189;SDS011;52992;52.084;5.412;2023-06-22T11:11:55;75.83;;;72.37;;
66189;SDS011;52992;52.084;5.412;2023-06-22T11:14:23;1353.67;;;686.03;;
66189;SDS011;52992;52.084;5.412;2023-06-22T11:16:50;1353.77;;;686.13;;
66189;SDS011;52992;52.084;5.412;2023-06-22T11:19:18;58.17;;;55.27;;
66189;SDS011;52992;52.084;5.412;2023-06-22T11:21:45;1999.90;;;999.90;;
66189;SDS011;52992;52.084;5.412;2023-06-22T11:24:11;1999.90;;;999.90;;
66189;SDS011;52992;52.084;5.412;2023-06-22T11:26:38;61.97;;;58.97;;
66189;SDS011;52992;52.084;5.412;2023-06-22T11:29:05;61.73;;;58.73;;
66189;SDS011;52992;52.084;5.412;2023-06-22T11:31:34;1999.90;;;999.90;;
66189;SDS011;52992;52.084;5.412;2023-06-22T11:34:01;1999.90;;;999.90;;
66189;SDS011;52992;52.084;5.412;2023-06-22T11:36:29;1999.90;;;999.90;;
66189;SDS011;52992;52.084;5.412;2023-06-22T11:38:59;1354.63;;;686.93;;
66189;SDS011;52992;52.084;5.412;2023-06-22T11:41:26;1999.90;;;999.90;;
66189;SDS011;52992;52.084;5.412;2023-06-22T11:43:53;1999.90;;;999.90;;
66189;SDS011;52992;52.084;5.412;2023-06-22T11:46:20;1999.90;;;999.90;;
66189;SDS011;52992;52.084;5.412;2023-06-22T11:48:47;1999.90;;;999.90;;
66189;SDS011;52992;52.084;5.412;2023-06-22T11:51:14;1999.90;;;999.90;;
66189;SDS011;52992;52.084;5.412;2023-06-22T11:53:41;67.03;;;64.00;;
66189;SDS011;52992;52.084;5.412;2023-06-22T11:56:08;1999.90;;;999.90;;
66189;SDS011;52992;52.084;5.412;2023-06-22T11:58:36;1999.90;;;999.90;;
66189;SDS011;52992;52.084;5.412;2023-06-22T12:01:03;1999.90;;;999.90;;
66189;SDS011;52992;52.084;5.412;2023-06-22T12:03:29;1999.90;;;999.90;;
66189;SDS011;52992;52.084;5.412;2023-06-22T12:05:57;1999.90;;;999.90;;
66189;SDS011;52992;52.084;5.412;2023-06-22T12:08:24;1999.90;;;999.90;;
66189;SDS011;52992;52.084;5.412;2023-06-22T12:10:51;1999.90;;;999.90;;
66189;SDS011;52992;52.084;5.412;2023-06-22T12:13:20;1999.90;;;999.90;;
66189;SDS011;52992;52.084;5.412;2023-06-22T12:15:46;1999.90;;;999.90;;
66189;SDS011;52992;52.084;5.412;2023-06-22T12:18:13;1999.90;;;999.90;;
66189;SDS011;52992;52.084;5.412;2023-06-22T12:20:41;1999.90;;;999.90;;
66189;SDS011;52992;52.084;5.412;2023-06-22T12:23:08;1999.90;;;999.90;;
66189;SDS011;52992;52.084;5.412;2023-06-22T12:25:35;1999.90;;;999.90;;
66189;SDS011;52992;52.084;5.412;2023-06-22T12:28:02;1999.90;;;999.90;;
66189;SDS011;52992;52.084;5.412;2023-06-22T12:30:32;1999.90;;;999.90;;
66189;SDS011;52992;52.084;5.412;2023-06-22T12:32:59;1999.90;;;999.90;;
66189;SDS011;52992;52.084;5.412;2023-06-22T12:35:26;1999.90;;;999.90;;
66189;SDS011;52992;52.084;5.412;2023-06-22T12:37:53;1999.90;;;999.90;;
66189;SDS011;52992;52.084;5.412;2023-06-22T12:40:20;1999.90;;;999.90;;
66189;SDS011;52992;52.084;5.412;2023-06-22T12:42:47;1999.90;;;999.90;;
66189;SDS011;52992;52.084;5.412;2023-06-22T12:45:15;1999.90;;;999.90;;
66189;SDS011;52992;52.084;5.412;2023-06-22T12:47:42;1999.90;;;999.90;;
66189;SDS011;52992;52.084;5.412;2023-06-22T12:50:09;1999.90;;;999.90;;
66189;SDS011;52992;52.084;5.412;2023-06-22T12:52:36;1999.90;;;999.90;;
66189;SDS011;52992;52.084;5.412;2023-06-22T12:55:07;1999.90;;;999.90;;
66189;SDS011;52992;52.084;5.412;2023-06-22T12:57:34;1999.90;;;999.90;;
66189;SDS011;52992;52.084;5.412;2023-06-22T13:00:01;1999.90;;;999.90;;
66189;SDS011;52992;52.084;5.412;2023-06-22T13:02:31;1999.90;;;999.90;;
66189;SDS011;52992;52.084;5.412;2023-06-22T13:04:58;1999.90;;;999.90;;
66189;SDS011;52992;52.084;5.412;2023-06-22T13:07:24;1999.90;;;999.90;;
66189;SDS011;52992;52.084;5.412;2023-06-22T13:09:52;1999.90;;;999.90;;
66189;SDS011;52992;52.084;5.412;2023-06-22T13:12:22;1999.90;;;999.90;;
66189;SDS011;52992;52.084;5.412;2023-06-22T13:14:49;1999.90;;;999.90;;
66189;SDS011;52992;52.084;5.412;2023-06-22T13:17:16;1999.90;;;999.90;;
66189;SDS011;52992;52.084;5.412;2023-06-22T13:19:43;1999.90;;;999.90;;
66189;SDS011;52992;52.084;5.412;2023-06-22T13:22:29;1999.90;;;999.90;;
66189;SDS011;52992;52.084;5.412;2023-06-22T13:24:57;1999.90;;;999.90;;
66189;SDS011;52992;52.084;5.412;2023-06-22T13:27:25;1999.90;;;999.90;;
66189;SDS011;52992;52.084;5.412;2023-06-22T13:29:52;1999.90;;;999.90;;
66189;SDS011;52992;52.084;5.412;2023-06-22T13:32:19;1999.90;;;999.90;;
66189;SDS011;52992;52.084;5.412;2023-06-22T13:34:46;1999.90;;;999.90;;
66189;SDS011;52992;52.084;5.412;2023-06-22T13:37:13;1999.90;;;999.90;;
66189;SDS011;52992;52.084;5.412;2023-06-22T13:39:41;1999.90;;;999.90;;
66189;SDS011;52992;52.084;5.412;2023-06-22T13:42:08;1999.90;;;999.90;;
66189;SDS011;52992;52.084;5.412;2023-06-22T13:44:35;1999.90;;;999.90;;
66189;SDS011;52992;52.084;5.412;2023-06-22T13:47:02;1999.90;;;999.90;;
66189;SDS011;52992;52.084;5.412;2023-06-22T13:49:31;1999.90;;;999.90;;
66189;SDS011;52992;52.084;5.412;2023-06-22T13:51:57;1999.90;;;999.90;;
66189;SDS011;52992;52.084;5.412;2023-06-22T13:54:25;1999.90;;;999.90;;
66189;SDS011;52992;52.084;5.412;2023-06-22T13:56:56;1999.90;;;999.90;;